Loading...
Newark Liberty International Airport

KEWR

Code AITA: EWR

Newark, New Jersey, United States

23.9°

Rosée: 10.6

Vitesse du vent

11 kt

Direction: 20° /

Altimètre

30.18 Hg

QNH : 1023

KEWR 191551Z 02011G20KT 10SM FEW055 SCT250 24/11 A3018 RMK AO2 SLP218 T02390106 $


Newark Liberty International Airport

Élévation

2.0 mètres

Ville

Newark

Localisation

New Jersey

Pays

United States

Nouvelle recherche